sensor_id;sensor_type;location;lat;lon;timestamp;P1;durP1;ratioP1;P2;durP2;ratioP2
19812;SDS011;10066;48.108;11.448;2022-07-04T00:02:13;3.47;;;2.00;;
19812;SDS011;10066;48.108;11.448;2022-07-04T00:04:41;3.47;;;1.70;;
19812;SDS011;10066;48.108;11.448;2022-07-04T00:07:08;3.17;;;1.67;;
19812;SDS011;10066;48.108;11.448;2022-07-04T00:09:36;2.90;;;1.57;;
19812;SDS011;10066;48.108;11.448;2022-07-04T00:12:03;2.47;;;1.50;;
19812;SDS011;10066;48.108;11.448;2022-07-04T00:14:30;6.30;;;1.83;;
19812;SDS011;10066;48.108;11.448;2022-07-04T00:16:58;2.03;;;1.40;;
19812;SDS011;10066;48.108;11.448;2022-07-04T00:19:25;2.70;;;1.50;;
19812;SDS011;10066;48.108;11.448;2022-07-04T00:21:53;2.57;;;1.50;;
19812;SDS011;10066;48.108;11.448;2022-07-04T00:24:23;5.07;;;1.50;;
19812;SDS011;10066;48.108;11.448;2022-07-04T00:26:50;3.50;;;1.43;;
19812;SDS011;10066;48.108;11.448;2022-07-04T00:29:19;3.13;;;1.60;;
19812;SDS011;10066;48.108;11.448;2022-07-04T00:31:46;2.50;;;1.60;;
19812;SDS011;10066;48.108;11.448;2022-07-04T00:34:14;5.93;;;1.70;;
19812;SDS011;10066;48.108;11.448;2022-07-04T00:36:41;1.53;;;1.37;;
19812;SDS011;10066;48.108;11.448;2022-07-04T00:39:10;3.83;;;1.43;;
19812;SDS011;10066;48.108;11.448;2022-07-04T00:41:37;2.67;;;1.40;;
19812;SDS011;10066;48.108;11.448;2022-07-04T00:44:06;1.83;;;1.20;;
19812;SDS011;10066;48.108;11.448;2022-07-04T00:46:33;2.17;;;1.50;;
19812;SDS011;10066;48.108;11.448;2022-07-04T00:49:02;2.80;;;1.50;;
19812;SDS011;10066;48.108;11.448;2022-07-04T00:51:30;2.57;;;1.20;;
19812;SDS011;10066;48.108;11.448;2022-07-04T00:53:58;2.87;;;1.40;;
19812;SDS011;10066;48.108;11.448;2022-07-04T00:56:28;1.77;;;1.20;;
19812;SDS011;10066;48.108;11.448;2022-07-04T00:58:56;2.40;;;1.30;;
19812;SDS011;10066;48.108;11.448;2022-07-04T01:01:24;1.87;;;1.40;;
19812;SDS011;10066;48.108;11.448;2022-07-04T01:03:52;3.53;;;1.17;;
19812;SDS011;10066;48.108;11.448;2022-07-04T01:06:20;4.17;;;1.60;;
19812;SDS011;10066;48.108;11.448;2022-07-04T01:08:47;1.63;;;1.40;;
19812;SDS011;10066;48.108;11.448;2022-07-04T01:11:14;1.93;;;1.40;;
19812;SDS011;10066;48.108;11.448;2022-07-04T01:13:43;1.90;;;1.37;;
19812;SDS011;10066;48.108;11.448;2022-07-04T01:16:10;2.00;;;1.40;;
19812;SDS011;10066;48.108;11.448;2022-07-04T01:18:38;2.07;;;1.30;;
19812;SDS011;10066;48.108;11.448;2022-07-04T01:21:07;3.43;;;1.60;;
19812;SDS011;10066;48.108;11.448;2022-07-04T01:23:36;4.20;;;1.57;;
19812;SDS011;10066;48.108;11.448;2022-07-04T01:26:04;4.87;;;1.50;;
19812;SDS011;10066;48.108;11.448;2022-07-04T01:28:31;3.53;;;1.33;;
19812;SDS011;10066;48.108;11.448;2022-07-04T01:30:59;3.17;;;1.40;;
19812;SDS011;10066;48.108;11.448;2022-07-04T01:33:26;2.27;;;1.30;;
19812;SDS011;10066;48.108;11.448;2022-07-04T01:35:53;2.17;;;1.30;;
19812;SDS011;10066;48.108;11.448;2022-07-04T01:38:21;1.80;;;1.40;;
19812;SDS011;10066;48.108;11.448;2022-07-04T01:40:49;2.57;;;1.27;;
19812;SDS011;10066;48.108;11.448;2022-07-04T01:43:16;1.50;;;1.30;;
19812;SDS011;10066;48.108;11.448;2022-07-04T01:45:43;2.00;;;1.33;;
19812;SDS011;10066;48.108;11.448;2022-07-04T01:48:11;2.63;;;1.40;;
19812;SDS011;10066;48.108;11.448;2022-07-04T01:50:39;2.27;;;1.37;;
19812;SDS011;10066;48.108;11.448;2022-07-04T01:53:07;2.13;;;1.50;;
19812;SDS011;10066;48.108;11.448;2022-07-04T01:55:36;2.17;;;1.30;;
19812;SDS011;10066;48.108;11.448;2022-07-04T01:58:03;2.07;;;1.30;;
19812;SDS011;10066;48.108;11.448;2022-07-04T02:00:30;1.80;;;1.10;;
19812;SDS011;10066;48.108;11.448;2022-07-04T02:03:14;2.73;;;1.50;;
19812;SDS011;10066;48.108;11.448;2022-07-04T02:05:43;4.40;;;1.50;;
19812;SDS011;10066;48.108;11.448;2022-07-04T02:08:10;2.57;;;1.40;;
19812;SDS011;10066;48.108;11.448;2022-07-04T02:10:38;1.67;;;1.47;;
19812;SDS011;10066;48.108;11.448;2022-07-04T02:13:06;1.63;;;1.53;;
19812;SDS011;10066;48.108;11.448;2022-07-04T02:15:32;2.60;;;1.47;;
19812;SDS011;10066;48.108;11.448;2022-07-04T02:18:01;1.97;;;1.40;;
19812;SDS011;10066;48.108;11.448;2022-07-04T02:20:29;1.40;;;1.30;;
19812;SDS011;10066;48.108;11.448;2022-07-04T02:22:56;2.70;;;1.30;;
19812;SDS011;10066;48.108;11.448;2022-07-04T02:25:23;1.70;;;1.43;;
19812;SDS011;10066;48.108;11.448;2022-07-04T02:27:52;2.90;;;1.40;;
19812;SDS011;10066;48.108;11.448;2022-07-04T02:30:19;2.57;;;1.30;;
19812;SDS011;10066;48.108;11.448;2022-07-04T02:32:46;2.67;;;1.43;;
19812;SDS011;10066;48.108;11.448;2022-07-04T02:35:13;3.10;;;1.50;;
19812;SDS011;10066;48.108;11.448;2022-07-04T02:37:41;2.93;;;1.57;;
19812;SDS011;10066;48.108;11.448;2022-07-04T02:40:08;2.10;;;1.30;;
19812;SDS011;10066;48.108;11.448;2022-07-04T02:42:36;4.57;;;1.43;;
19812;SDS011;10066;48.108;11.448;2022-07-04T02:45:06;3.50;;;1.40;;
19812;SDS011;10066;48.108;11.448;2022-07-04T02:47:33;5.40;;;1.67;;
19812;SDS011;10066;48.108;11.448;2022-07-04T02:50:01;1.60;;;1.37;;
19812;SDS011;10066;48.108;11.448;2022-07-04T02:52:28;2.43;;;1.27;;
19812;SDS011;10066;48.108;11.448;2022-07-04T02:54:55;3.67;;;1.60;;
19812;SDS011;10066;48.108;11.448;2022-07-04T02:57:23;2.43;;;1.63;;
19812;SDS011;10066;48.108;11.448;2022-07-04T02:59:51;4.67;;;1.43;;
19812;SDS011;10066;48.108;11.448;2022-07-04T03:02:20;2.03;;;1.20;;
19812;SDS011;10066;48.108;11.448;2022-07-04T03:04:47;3.00;;;1.43;;
19812;SDS011;10066;48.108;11.448;2022-07-04T03:07:13;2.87;;;1.40;;
19812;SDS011;10066;48.108;11.448;2022-07-04T03:09:41;4.37;;;1.60;;
19812;SDS011;10066;48.108;11.448;2022-07-04T03:12:08;2.90;;;1.50;;
19812;SDS011;10066;48.108;11.448;2022-07-04T03:14:35;3.10;;;1.63;;
19812;SDS011;10066;48.108;11.448;2022-07-04T03:17:02;2.63;;;1.70;;
19812;SDS011;10066;48.108;11.448;2022-07-04T03:19:30;2.60;;;1.60;;
19812;SDS011;10066;48.108;11.448;2022-07-04T03:21:57;2.00;;;1.47;;
19812;SDS011;10066;48.108;11.448;2022-07-04T03:24:25;1.57;;;1.30;;
19812;SDS011;10066;48.108;11.448;2022-07-04T03:26:51;3.83;;;1.60;;
19812;SDS011;10066;48.108;11.448;2022-07-04T03:29:19;2.40;;;1.50;;
19812;SDS011;10066;48.108;11.448;2022-07-04T03:31:46;2.57;;;1.60;;
19812;SDS011;10066;48.108;11.448;2022-07-04T03:34:13;3.10;;;1.40;;
19812;SDS011;10066;48.108;11.448;2022-07-04T03:36:42;2.30;;;1.70;;
19812;SDS011;10066;48.108;11.448;2022-07-04T03:39:09;2.80;;;1.50;;
19812;SDS011;10066;48.108;11.448;2022-07-04T03:41:36;5.50;;;1.80;;
19812;SDS011;10066;48.108;11.448;2022-07-04T03:44:03;2.57;;;1.90;;
19812;SDS011;10066;48.108;11.448;2022-07-04T03:46:30;3.70;;;1.60;;
19812;SDS011;10066;48.108;11.448;2022-07-04T03:48:57;2.23;;;1.80;;
19812;SDS011;10066;48.108;11.448;2022-07-04T03:51:24;3.10;;;1.70;;
19812;SDS011;10066;48.108;11.448;2022-07-04T03:53:53;3.80;;;1.67;;
19812;SDS011;10066;48.108;11.448;2022-07-04T03:56:21;5.63;;;2.23;;
19812;SDS011;10066;48.108;11.448;2022-07-04T03:58:48;2.40;;;1.70;;
19812;SDS011;10066;48.108;11.448;2022-07-04T04:01:15;1.63;;;1.47;;
19812;SDS011;10066;48.108;11.448;2022-07-04T04:03:42;2.50;;;1.70;;
19812;SDS011;10066;48.108;11.448;2022-07-04T04:06:27;4.50;;;1.60;;
19812;SDS011;10066;48.108;11.448;2022-07-04T04:08:56;2.43;;;1.40;;
19812;SDS011;10066;48.108;11.448;2022-07-04T04:11:23;3.87;;;1.80;;
19812;SDS011;10066;48.108;11.448;2022-07-04T04:13:50;2.90;;;1.53;;
19812;SDS011;10066;48.108;11.448;2022-07-04T04:16:17;2.23;;;1.40;;
19812;SDS011;10066;48.108;11.448;2022-07-04T04:18:44;2.30;;;1.67;;
19812;SDS011;10066;48.108;11.448;2022-07-04T04:21:11;4.10;;;1.57;;
19812;SDS011;10066;48.108;11.448;2022-07-04T04:23:38;3.33;;;1.60;;
19812;SDS011;10066;48.108;11.448;2022-07-04T04:26:07;1.67;;;1.50;;
19812;SDS011;10066;48.108;11.448;2022-07-04T04:28:34;1.63;;;1.40;;
19812;SDS011;10066;48.108;11.448;2022-07-04T04:31:01;2.13;;;1.47;;
19812;SDS011;10066;48.108;11.448;2022-07-04T04:33:28;1.87;;;1.60;;
19812;SDS011;10066;48.108;11.448;2022-07-04T04:35:56;3.27;;;1.37;;
19812;SDS011;10066;48.108;11.448;2022-07-04T04:38:23;2.80;;;1.73;;
19812;SDS011;10066;48.108;11.448;2022-07-04T04:40:50;1.83;;;1.50;;
19812;SDS011;10066;48.108;11.448;2022-07-04T04:43:19;2.63;;;1.60;;
19812;SDS011;10066;48.108;11.448;2022-07-04T04:45:46;6.07;;;1.70;;
19812;SDS011;10066;48.108;11.448;2022-07-04T04:48:12;2.67;;;1.70;;
19812;SDS011;10066;48.108;11.448;2022-07-04T04:50:41;2.07;;;1.50;;
19812;SDS011;10066;48.108;11.448;2022-07-04T04:53:07;2.33;;;1.60;;
19812;SDS011;10066;48.108;11.448;2022-07-04T04:55:35;1.90;;;1.60;;
19812;SDS011;10066;48.108;11.448;2022-07-04T04:58:02;2.73;;;1.57;;
19812;SDS011;10066;48.108;11.448;2022-07-04T05:00:30;2.60;;;1.27;;
19812;SDS011;10066;48.108;11.448;2022-07-04T05:02:57;1.67;;;1.30;;
19812;SDS011;10066;48.108;11.448;2022-07-04T05:05:25;1.83;;;1.43;;
19812;SDS011;10066;48.108;11.448;2022-07-04T05:07:52;3.17;;;1.47;;
19812;SDS011;10066;48.108;11.448;2022-07-04T05:10:20;1.60;;;1.37;;
19812;SDS011;10066;48.108;11.448;2022-07-04T05:12:47;4.23;;;1.70;;
19812;SDS011;10066;48.108;11.448;2022-07-04T05:15:14;3.43;;;1.57;;
19812;SDS011;10066;48.108;11.448;2022-07-04T05:17:45;3.70;;;1.70;;
19812;SDS011;10066;48.108;11.448;2022-07-04T05:20:12;3.00;;;2.03;;
19812;SDS011;10066;48.108;11.448;2022-07-04T05:22:39;4.80;;;1.90;;
19812;SDS011;10066;48.108;11.448;2022-07-04T05:25:07;3.93;;;1.63;;
19812;SDS011;10066;48.108;11.448;2022-07-04T05:27:35;2.43;;;1.80;;
19812;SDS011;10066;48.108;11.448;2022-07-04T05:30:02;3.83;;;2.10;;
19812;SDS011;10066;48.108;11.448;2022-07-04T05:32:30;3.63;;;1.80;;
19812;SDS011;10066;48.108;11.448;2022-07-04T05:34:58;2.97;;;1.83;;
19812;SDS011;10066;48.108;11.448;2022-07-04T05:37:25;3.17;;;1.90;;
19812;SDS011;10066;48.108;11.448;2022-07-04T05:39:52;2.40;;;1.67;;
19812;SDS011;10066;48.108;11.448;2022-07-04T05:42:19;2.63;;;1.87;;
19812;SDS011;10066;48.108;11.448;2022-07-04T05:44:46;2.47;;;1.60;;
19812;SDS011;10066;48.108;11.448;2022-07-04T05:47:14;1.53;;;1.40;;
19812;SDS011;10066;48.108;11.448;2022-07-04T05:49:41;2.63;;;1.73;;
19812;SDS011;10066;48.108;11.448;2022-07-04T05:52:10;2.23;;;1.53;;
19812;SDS011;10066;48.108;11.448;2022-07-04T05:54:37;2.47;;;1.60;;
19812;SDS011;10066;48.108;11.448;2022-07-04T05:57:04;2.47;;;1.60;;
19812;SDS011;10066;48.108;11.448;2022-07-04T05:59:31;1.93;;;1.60;;
19812;SDS011;10066;48.108;11.448;2022-07-04T06:01:58;3.57;;;1.50;;
19812;SDS011;10066;48.108;11.448;2022-07-04T06:04:26;1.97;;;1.70;;
19812;SDS011;10066;48.108;11.448;2022-07-04T06:06:53;2.10;;;1.60;;
19812;SDS011;10066;48.108;11.448;2022-07-04T06:09:21;2.50;;;1.60;;
19812;SDS011;10066;48.108;11.448;2022-07-04T06:11:48;3.57;;;1.53;;
19812;SDS011;10066;48.108;11.448;2022-07-04T06:14:18;3.97;;;1.77;;
19812;SDS011;10066;48.108;11.448;2022-07-04T06:16:46;3.23;;;1.50;;
19812;SDS011;10066;48.108;11.448;2022-07-04T06:19:15;2.97;;;1.70;;
19812;SDS011;10066;48.108;11.448;2022-07-04T06:21:43;2.03;;;1.60;;
19812;SDS011;10066;48.108;11.448;2022-07-04T06:24:10;1.93;;;1.50;;
19812;SDS011;10066;48.108;11.448;2022-07-04T06:26:38;3.03;;;1.60;;
19812;SDS011;10066;48.108;11.448;2022-07-04T06:29:06;3.47;;;1.87;;
19812;SDS011;10066;48.108;11.448;2022-07-04T06:31:33;1.60;;;1.50;;
19812;SDS011;10066;48.108;11.448;2022-07-04T06:34:00;1.57;;;1.30;;
19812;SDS011;10066;48.108;11.448;2022-07-04T06:36:46;2.47;;;1.53;;
19812;SDS011;10066;48.108;11.448;2022-07-04T06:39:13;2.93;;;1.30;;
19812;SDS011;10066;48.108;11.448;2022-07-04T06:41:44;3.60;;;1.23;;
19812;SDS011;10066;48.108;11.448;2022-07-04T06:44:11;4.17;;;1.50;;
19812;SDS011;10066;48.108;11.448;2022-07-04T06:46:38;2.17;;;1.30;;
19812;SDS011;10066;48.108;11.448;2022-07-04T06:49:05;2.97;;;1.30;;
19812;SDS011;10066;48.108;11.448;2022-07-04T06:51:34;1.83;;;1.30;;
19812;SDS011;10066;48.108;11.448;2022-07-04T06:54:01;2.03;;;1.27;;
19812;SDS011;10066;48.108;11.448;2022-07-04T06:56:29;2.20;;;1.60;;
19812;SDS011;10066;48.108;11.448;2022-07-04T06:58:58;2.87;;;1.57;;
19812;SDS011;10066;48.108;11.448;2022-07-04T07:01:25;1.77;;;1.27;;
19812;SDS011;10066;48.108;11.448;2022-07-04T07:03:52;4.33;;;1.50;;
19812;SDS011;10066;48.108;11.448;2022-07-04T07:06:19;3.30;;;1.37;;
19812;SDS011;10066;48.108;11.448;2022-07-04T07:08:48;4.80;;;1.40;;
19812;SDS011;10066;48.108;11.448;2022-07-04T07:11:21;2.60;;;1.30;;
19812;SDS011;10066;48.108;11.448;2022-07-04T07:13:50;2.40;;;1.53;;
19812;SDS011;10066;48.108;11.448;2022-07-04T07:16:19;2.67;;;1.53;;
19812;SDS011;10066;48.108;11.448;2022-07-04T07:18:47;2.63;;;1.40;;
19812;SDS011;10066;48.108;11.448;2022-07-04T07:21:15;2.53;;;1.50;;
19812;SDS011;10066;48.108;11.448;2022-07-04T07:23:42;1.90;;;1.27;;
19812;SDS011;10066;48.108;11.448;2022-07-04T07:26:10;1.60;;;1.47;;
19812;SDS011;10066;48.108;11.448;2022-07-04T07:28:38;5.93;;;1.50;;
19812;SDS011;10066;48.108;11.448;2022-07-04T07:31:05;3.07;;;1.50;;
19812;SDS011;10066;48.108;11.448;2022-07-04T07:33:33;1.47;;;1.33;;
19812;SDS011;10066;48.108;11.448;2022-07-04T07:36:00;2.07;;;1.53;;
19812;SDS011;10066;48.108;11.448;2022-07-04T07:38:28;2.07;;;1.37;;
19812;SDS011;10066;48.108;11.448;2022-07-04T07:40:55;4.03;;;1.40;;
19812;SDS011;10066;48.108;11.448;2022-07-04T07:43:22;4.20;;;1.67;;
19812;SDS011;10066;48.108;11.448;2022-07-04T07:45:50;2.70;;;1.40;;
19812;SDS011;10066;48.108;11.448;2022-07-04T07:48:17;2.50;;;1.47;;
19812;SDS011;10066;48.108;11.448;2022-07-04T07:50:45;4.03;;;1.60;;
19812;SDS011;10066;48.108;11.448;2022-07-04T07:53:12;2.90;;;1.87;;
19812;SDS011;10066;48.108;11.448;2022-07-04T07:55:39;2.27;;;1.60;;
19812;SDS011;10066;48.108;11.448;2022-07-04T07:58:06;2.13;;;1.50;;
19812;SDS011;10066;48.108;11.448;2022-07-04T08:00:33;4.00;;;1.33;;
19812;SDS011;10066;48.108;11.448;2022-07-04T08:03:00;3.40;;;1.63;;
19812;SDS011;10066;48.108;11.448;2022-07-04T08:05:46;2.43;;;1.47;;
19812;SDS011;10066;48.108;11.448;2022-07-04T08:08:13;2.37;;;1.37;;
19812;SDS011;10066;48.108;11.448;2022-07-04T08:10:40;3.37;;;1.70;;
19812;SDS011;10066;48.108;11.448;2022-07-04T08:13:07;2.77;;;1.87;;
19812;SDS011;10066;48.108;11.448;2022-07-04T08:15:35;3.73;;;1.60;;
19812;SDS011;10066;48.108;11.448;2022-07-04T08:18:02;5.83;;;1.50;;
19812;SDS011;10066;48.108;11.448;2022-07-04T08:20:29;3.57;;;1.30;;
19812;SDS011;10066;48.108;11.448;2022-07-04T08:22:58;3.87;;;1.83;;
19812;SDS011;10066;48.108;11.448;2022-07-04T08:25:25;3.73;;;1.97;;
19812;SDS011;10066;48.108;11.448;2022-07-04T08:27:52;3.03;;;1.30;;
19812;SDS011;10066;48.108;11.448;2022-07-04T08:30:19;1.60;;;1.10;;
19812;SDS011;10066;48.108;11.448;2022-07-04T08:32:46;2.47;;;1.43;;
19812;SDS011;10066;48.108;11.448;2022-07-04T08:35:13;1.63;;;1.40;;
19812;SDS011;10066;48.108;11.448;2022-07-04T08:37:40;4.03;;;1.53;;
19812;SDS011;10066;48.108;11.448;2022-07-04T08:40:10;5.57;;;1.60;;
19812;SDS011;10066;48.108;11.448;2022-07-04T08:42:38;1.80;;;1.30;;
19812;SDS011;10066;48.108;11.448;2022-07-04T08:45:06;1.60;;;1.13;;
19812;SDS011;10066;48.108;11.448;2022-07-04T08:47:34;2.57;;;1.40;;
19812;SDS011;10066;48.108;11.448;2022-07-04T08:50:06;3.07;;;1.30;;
19812;SDS011;10066;48.108;11.448;2022-07-04T08:52:38;2.73;;;1.17;;
19812;SDS011;10066;48.108;11.448;2022-07-04T08:55:10;1.87;;;1.40;;
19812;SDS011;10066;48.108;11.448;2022-07-04T08:57:56;1.93;;;1.40;;
19812;SDS011;10066;48.108;11.448;2022-07-04T09:00:41;2.30;;;1.40;;
19812;SDS011;10066;48.108;11.448;2022-07-04T09:03:08;2.63;;;1.23;;
19812;SDS011;10066;48.108;11.448;2022-07-04T09:05:36;2.67;;;1.20;;
19812;SDS011;10066;48.108;11.448;2022-07-04T09:08:03;3.27;;;1.33;;
19812;SDS011;10066;48.108;11.448;2022-07-04T09:10:32;3.30;;;1.40;;
19812;SDS011;10066;48.108;11.448;2022-07-04T09:13:00;2.83;;;1.00;;
19812;SDS011;10066;48.108;11.448;2022-07-04T09:15:29;2.13;;;1.20;;
19812;SDS011;10066;48.108;11.448;2022-07-04T09:17:56;2.00;;;1.20;;
19812;SDS011;10066;48.108;11.448;2022-07-04T09:20:24;1.47;;;1.07;;
19812;SDS011;10066;48.108;11.448;2022-07-04T09:22:53;1.53;;;1.13;;
19812;SDS011;10066;48.108;11.448;2022-07-04T09:25:21;2.17;;;1.17;;
19812;SDS011;10066;48.108;11.448;2022-07-04T09:27:51;5.30;;;1.07;;
19812;SDS011;10066;48.108;11.448;2022-07-04T09:30:19;8.70;;;1.30;;
19812;SDS011;10066;48.108;11.448;2022-07-04T09:32:50;3.50;;;1.40;;
19812;SDS011;10066;48.108;11.448;2022-07-04T09:35:26;4.63;;;1.43;;
19812;SDS011;10066;48.108;11.448;2022-07-04T09:37:54;5.50;;;1.83;;
19812;SDS011;10066;48.108;11.448;2022-07-04T09:40:25;4.63;;;1.50;;
19812;SDS011;10066;48.108;11.448;2022-07-04T09:42:55;2.97;;;1.20;;
19812;SDS011;10066;48.108;11.448;2022-07-04T09:45:23;2.83;;;1.40;;
19812;SDS011;10066;48.108;11.448;2022-07-04T09:47:53;2.53;;;1.23;;
19812;SDS011;10066;48.108;11.448;2022-07-04T09:50:23;2.70;;;1.30;;
19812;SDS011;10066;48.108;11.448;2022-07-04T09:52:52;3.90;;;1.30;;
19812;SDS011;10066;48.108;11.448;2022-07-04T09:55:21;1.67;;;1.27;;
19812;SDS011;10066;48.108;11.448;2022-07-04T09:57:50;2.30;;;1.17;;
19812;SDS011;10066;48.108;11.448;2022-07-04T10:00:21;3.00;;;1.27;;
19812;SDS011;10066;48.108;11.448;2022-07-04T10:02:51;3.40;;;1.10;;
19812;SDS011;10066;48.108;11.448;2022-07-04T10:05:20;3.63;;;0.90;;
19812;SDS011;10066;48.108;11.448;2022-07-04T10:07:48;1.40;;;0.90;;
19812;SDS011;10066;48.108;11.448;2022-07-04T10:13:05;1.97;;;0.83;;
19812;SDS011;10066;48.108;11.448;2022-07-04T10:15:35;2.40;;;1.20;;
19812;SDS011;10066;48.108;11.448;2022-07-04T10:18:04;2.47;;;1.20;;
19812;SDS011;10066;48.108;11.448;2022-07-04T10:20:32;0.83;;;0.80;;
19812;SDS011;10066;48.108;11.448;2022-07-04T10:23:00;1.60;;;0.90;;
19812;SDS011;10066;48.108;11.448;2022-07-04T10:25:28;2.07;;;1.00;;
19812;SDS011;10066;48.108;11.448;2022-07-04T10:27:55;1.77;;;1.00;;
19812;SDS011;10066;48.108;11.448;2022-07-04T10:30:23;1.37;;;1.00;;
19812;SDS011;10066;48.108;11.448;2022-07-04T10:32:54;3.33;;;1.20;;
19812;SDS011;10066;48.108;11.448;2022-07-04T10:38:16;3.10;;;1.25;;
19812;SDS011;10066;48.108;11.448;2022-07-04T10:40:45;1.30;;;1.00;;
19812;SDS011;10066;48.108;11.448;2022-07-04T10:46:26;1.60;;;0.97;;
19812;SDS011;10066;48.108;11.448;2022-07-04T10:48:57;3.00;;;0.90;;
19812;SDS011;10066;48.108;11.448;2022-07-04T10:51:36;3.83;;;1.10;;
19812;SDS011;10066;48.108;11.448;2022-07-04T10:54:07;1.00;;;1.00;;
19812;SDS011;10066;48.108;11.448;2022-07-04T10:56:48;1.57;;;0.90;;
19812;SDS011;10066;48.108;11.448;2022-07-04T10:59:20;2.78;;;1.10;;
19812;SDS011;10066;48.108;11.448;2022-07-04T11:01:52;3.13;;;1.20;;
19812;SDS011;10066;48.108;11.448;2022-07-04T11:04:50;2.15;;;1.10;;
19812;SDS011;10066;48.108;11.448;2022-07-04T11:07:18;4.43;;;1.13;;
19812;SDS011;10066;48.108;11.448;2022-07-04T11:10:17;1.33;;;0.90;;
19812;SDS011;10066;48.108;11.448;2022-07-04T11:13:01;1.95;;;1.10;;
19812;SDS011;10066;48.108;11.448;2022-07-04T11:18:28;2.20;;;1.00;;
19812;SDS011;10066;48.108;11.448;2022-07-04T11:20:58;1.48;;;1.10;;
19812;SDS011;10066;48.108;11.448;2022-07-04T11:23:25;1.60;;;1.00;;
19812;SDS011;10066;48.108;11.448;2022-07-04T11:25:52;2.83;;;1.08;;
19812;SDS011;10066;48.108;11.448;2022-07-04T11:28:21;1.85;;;1.20;;
19812;SDS011;10066;48.108;11.448;2022-07-04T11:30:49;1.52;;;0.95;;
19812;SDS011;10066;48.108;11.448;2022-07-04T11:33:18;1.40;;;1.00;;
19812;SDS011;10066;48.108;11.448;2022-07-04T11:36:03;3.47;;;1.08;;
19812;SDS011;10066;48.108;11.448;2022-07-04T11:38:50;2.70;;;1.00;;
19812;SDS011;10066;48.108;11.448;2022-07-04T11:41:20;1.42;;;1.00;;
19812;SDS011;10066;48.108;11.448;2022-07-04T11:44:09;1.70;;;0.95;;
19812;SDS011;10066;48.108;11.448;2022-07-04T11:47:02;3.50;;;1.13;;
19812;SDS011;10066;48.108;11.448;2022-07-04T11:49:30;3.00;;;1.20;;
19812;SDS011;10066;48.108;11.448;2022-07-04T11:51:59;1.88;;;1.13;;
19812;SDS011;10066;48.108;11.448;2022-07-04T11:54:26;1.67;;;1.10;;
19812;SDS011;10066;48.108;11.448;2022-07-04T11:57:07;2.50;;;1.20;;
19812;SDS011;10066;48.108;11.448;2022-07-04T11:59:35;1.70;;;1.10;;
19812;SDS011;10066;48.108;11.448;2022-07-04T12:02:10;1.67;;;1.10;;
19812;SDS011;10066;48.108;11.448;2022-07-04T12:04:38;4.53;;;1.13;;
19812;SDS011;10066;48.108;11.448;2022-07-04T12:07:10;3.72;;;1.00;;
19812;SDS011;10066;48.108;11.448;2022-07-04T12:09:38;2.85;;;1.00;;
19812;SDS011;10066;48.108;11.448;2022-07-04T12:12:06;4.03;;;1.10;;
19812;SDS011;10066;48.108;11.448;2022-07-04T12:14:34;1.48;;;1.10;;
19812;SDS011;10066;48.108;11.448;2022-07-04T12:17:14;3.22;;;1.10;;
19812;SDS011;10066;48.108;11.448;2022-07-04T12:19:52;1.75;;;0.88;;
19812;SDS011;10066;48.108;11.448;2022-07-04T12:22:42;2.85;;;1.00;;
19812;SDS011;10066;48.108;11.448;2022-07-04T12:25:20;4.55;;;1.00;;
19812;SDS011;10066;48.108;11.448;2022-07-04T12:27:53;1.83;;;0.95;;
19812;SDS011;10066;48.108;11.448;2022-07-04T12:30:22;1.77;;;1.17;;
19812;SDS011;10066;48.108;11.448;2022-07-04T12:32:50;4.03;;;1.30;;
19812;SDS011;10066;48.108;11.448;2022-07-04T12:35:37;2.75;;;0.90;;
19812;SDS011;10066;48.108;11.448;2022-07-04T12:38:11;1.70;;;1.00;;
19812;SDS011;10066;48.108;11.448;2022-07-04T12:40:49;2.75;;;1.15;;
19812;SDS011;10066;48.108;11.448;2022-07-04T12:43:19;1.00;;;0.90;;
19812;SDS011;10066;48.108;11.448;2022-07-04T12:45:47;1.75;;;1.20;;
19812;SDS011;10066;48.108;11.448;2022-07-04T12:48:17;2.80;;;1.20;;
19812;SDS011;10066;48.108;11.448;2022-07-04T12:50:45;1.55;;;1.10;;
19812;SDS011;10066;48.108;11.448;2022-07-04T12:53:14;2.95;;;1.20;;
19812;SDS011;10066;48.108;11.448;2022-07-04T12:55:41;1.23;;;0.90;;
19812;SDS011;10066;48.108;11.448;2022-07-04T12:58:09;2.03;;;1.17;;
19812;SDS011;10066;48.108;11.448;2022-07-04T13:00:36;2.30;;;1.20;;
19812;SDS011;10066;48.108;11.448;2022-07-04T13:03:04;2.75;;;1.15;;
19812;SDS011;10066;48.108;11.448;2022-07-04T13:05:33;1.60;;;1.00;;
19812;SDS011;10066;48.108;11.448;2022-07-04T13:08:01;2.25;;;0.95;;
19812;SDS011;10066;48.108;11.448;2022-07-04T13:10:30;1.42;;;1.00;;
19812;SDS011;10066;48.108;11.448;2022-07-04T13:12:58;1.52;;;0.98;;
19812;SDS011;10066;48.108;11.448;2022-07-04T13:15:26;3.22;;;1.17;;
19812;SDS011;10066;48.108;11.448;2022-07-04T13:17:53;3.45;;;1.20;;
19812;SDS011;10066;48.108;11.448;2022-07-04T13:20:20;1.58;;;1.35;;
19812;SDS011;10066;48.108;11.448;2022-07-04T13:22:47;1.70;;;1.00;;
19812;SDS011;10066;48.108;11.448;2022-07-04T13:25:14;1.42;;;1.00;;
19812;SDS011;10066;48.108;11.448;2022-07-04T13:27:43;2.33;;;1.08;;
19812;SDS011;10066;48.108;11.448;2022-07-04T13:30:11;2.97;;;1.13;;
19812;SDS011;10066;48.108;11.448;2022-07-04T13:32:38;2.17;;;1.10;;
19812;SDS011;10066;48.108;11.448;2022-07-04T13:35:06;1.63;;;0.90;;
19812;SDS011;10066;48.108;11.448;2022-07-04T13:37:34;2.72;;;1.30;;
19812;SDS011;10066;48.108;11.448;2022-07-04T13:40:06;2.55;;;1.20;;
19812;SDS011;10066;48.108;11.448;2022-07-04T13:42:35;2.20;;;0.95;;
19812;SDS011;10066;48.108;11.448;2022-07-04T13:45:21;2.10;;;1.30;;
19812;SDS011;10066;48.108;11.448;2022-07-04T13:47:48;2.28;;;1.23;;
19812;SDS011;10066;48.108;11.448;2022-07-04T13:50:16;1.92;;;1.20;;
19812;SDS011;10066;48.108;11.448;2022-07-04T13:52:42;1.90;;;1.10;;
19812;SDS011;10066;48.108;11.448;2022-07-04T13:55:10;2.38;;;1.42;;
19812;SDS011;10066;48.108;11.448;2022-07-04T13:57:38;2.67;;;1.38;;
19812;SDS011;10066;48.108;11.448;2022-07-04T14:00:05;3.28;;;1.10;;
19812;SDS011;10066;48.108;11.448;2022-07-04T14:02:35;3.08;;;1.50;;
19812;SDS011;10066;48.108;11.448;2022-07-04T14:05:03;2.30;;;1.20;;
19812;SDS011;10066;48.108;11.448;2022-07-04T14:07:30;2.72;;;1.30;;
19812;SDS011;10066;48.108;11.448;2022-07-04T14:09:58;3.20;;;1.42;;
19812;SDS011;10066;48.108;11.448;2022-07-04T14:12:25;2.70;;;1.27;;
19812;SDS011;10066;48.108;11.448;2022-07-04T14:14:52;2.08;;;1.20;;
19812;SDS011;10066;48.108;11.448;2022-07-04T14:17:20;3.38;;;1.50;;
19812;SDS011;10066;48.108;11.448;2022-07-04T14:19:48;2.70;;;1.33;;
19812;SDS011;10066;48.108;11.448;2022-07-04T14:22:16;2.85;;;1.40;;
19812;SDS011;10066;48.108;11.448;2022-07-04T14:24:43;4.22;;;1.27;;
19812;SDS011;10066;48.108;11.448;2022-07-04T14:27:10;2.22;;;1.20;;
19812;SDS011;10066;48.108;11.448;2022-07-04T14:29:37;2.17;;;1.30;;
19812;SDS011;10066;48.108;11.448;2022-07-04T14:32:04;2.80;;;1.25;;
19812;SDS011;10066;48.108;11.448;2022-07-04T14:34:32;3.83;;;1.08;;
19812;SDS011;10066;48.108;11.448;2022-07-04T14:37:01;2.85;;;1.30;;
19812;SDS011;10066;48.108;11.448;2022-07-04T14:39:28;1.30;;;1.05;;
19812;SDS011;10066;48.108;11.448;2022-07-04T14:41:55;2.17;;;1.00;;
19812;SDS011;10066;48.108;11.448;2022-07-04T14:44:22;2.03;;;1.10;;
19812;SDS011;10066;48.108;11.448;2022-07-04T14:46:49;2.42;;;1.50;;
19812;SDS011;10066;48.108;11.448;2022-07-04T14:49:17;3.60;;;1.48;;
19812;SDS011;10066;48.108;11.448;2022-07-04T14:51:46;3.92;;;1.25;;
19812;SDS011;10066;48.108;11.448;2022-07-04T14:54:14;1.47;;;1.17;;
19812;SDS011;10066;48.108;11.448;2022-07-04T14:56:41;2.17;;;1.08;;